STS Pogoria — SQKY — position and weather

sailwx.info

Track history (hours):
 
Tides and Currents Weather Stations Pressure Air Temp Water Temp Dewpoint Dewpoint Depression Visibility Wind Speed Wind Dir Waves Ship Positions

STS Pogoria

Last reported at 2019-Dec-12 07:30 UTC. Time now 2019-Dec-12 08:02 UTC.
Position N 43°44' E 007°42'.

Length 47 m.

Type: Sailing vessel. MMSI: 261146000.

Date/timePositionNaut miles runAvg speedWind from/ knotsBaromVisibWave heightAir tempDewpointWater temp
2019-Dec-12 07:30N 43°44' E 007°42'7 4.3
2019-Dec-12 06:00N 43°43' E 007°33'6 4.2
2019-Dec-12 04:30N 43°40' E 007°25'7 2.8
2019-Dec-12 02:00N 43°36' E 007°18'1 2.2
2019-Dec-12 01:30N 43°35' E 007°17'2 1.7
2019-Dec-12 00:30N 43°34' E 007°15'1 1.6
2019-Dec-12 00:00N 43°33' E 007°14'3 2.3
2019-Dec-11 22:30N 43°31' E 007°11'4 2.6
2019-Dec-11 21:00N 43°28' E 007°07'5 3.1
2019-Dec-11 19:30N 43°26' E 007°01'5 0.2
2019-Dec-10 14:30N 43°24' E 006°55'7 4.4
2019-Dec-10 13:00N 43°27' E 007°03'1 2.2
2019-Dec-10 12:30N 43°28' E 007°04'2 2.4
2019-Dec-10 11:31N 43°29' E 007°07'3 2.7
2019-Dec-10 10:30N 43°30' E 007°10'5 5.0
2019-Dec-10 09:30N 43°35' E 007°13'3 7.0
2019-Dec-10 09:00N 43°38' E 007°15'4 1.5
2019-Dec-10 06:28N 43°42' E 007°17'0 0.0
2019-Dec-10 04:28N 43°42' E 007°17'0 0.0
2019-Dec-10 03:28N 43°42' E 007°17'0 0.0
2019-Dec-10 02:58N 43°42' E 007°17'0 0.0
2019-Dec-10 01:58N 43°42' E 007°17'0 0.0
2019-Dec-09 22:00N 43°42' E 007°17'0 0.0
2019-Dec-09 21:00N 43°42' E 007°17'0 0.0
2019-Dec-09 20:30N 43°42' E 007°17'0 0.0
2019-Dec-09 20:00N 43°42' E 007°17'0 0.0
2019-Dec-09 18:00N 43°42' E 007°17'1 0.1
2019-Dec-09 07:00N 43°41' E 007°18'1 0.5
2019-Dec-09 04:30N 43°40' E 007°17'3 3.0
2019-Dec-09 03:30N 43°39' E 007°21'22 4.5
2019-Dec-08 22:30N 43°46' E 007°50'  
2019-Dec-06 12:01N 44°08' E 008°16'0 1.2
2019-Dec-06 12:00N 44°08' E 008°16'5 5.3
2019-Dec-06 11:00N 44°04' E 008°21'3 0.7
2019-Dec-06 06:52N 44°02' E 008°24'1 1.5
2019-Dec-06 06:30N 44°03' E 008°25'4 2.2
2019-Dec-06 04:29N 44°04' E 008°31'14 5.7
2019-Dec-06 02:00N 44°15' E 008°44'0 0.6
2019-Dec-06 01:30N 44°15' E 008°44'18 5.9
2019-Dec-05 22:30N 44°16' E 009°09'6 0.4
2019-Dec-05 05:55N 44°17' E 009°17'2 4.4
2019-Dec-05 05:29N 44°15' E 009°19'2 4.6
2019-Dec-05 05:00N 44°14' E 009°21'17 5.8
2019-Dec-05 02:00N 44°00' E 009°37'1 1.0
2019-Dec-05 00:58N 43°60' E 009°37'10 1.7
2019-Dec-04 18:58N 44°03' E 009°51'0 0.0
2019-Dec-04 16:58N 44°03' E 009°51'0 0.0
2019-Dec-04 11:58N 44°03' E 009°51'0 0.0
2019-Dec-04 09:28N 44°03' E 009°51'0 0.0
2019-Dec-04 08:28N 44°03' E 009°51'6 2.9
2019-Dec-04 06:30N 43°58' E 009°53'4 4.1
2019-Dec-04 05:30N 43°54' E 009°52'2 4.7
2019-Dec-04 05:00N 43°51' E 009°52'5 4.8
2019-Dec-04 04:00N 43°47' E 009°52'1 2.3
2019-Dec-04 03:30N 43°45' E 009°53'3 3.3
2019-Dec-04 02:30N 43°42' E 009°53'2 3.7
2019-Dec-04 02:00N 43°40' E 009°53'7 4.7
2019-Dec-04 00:30N 43°34' E 009°57'7 6.5
2019-Dec-03 23:29N 43°28' E 010°02'  
Track history (hours):
 
Tides and Currents Weather Stations Pressure Air Temp Water Temp Dewpoint Dewpoint Depression Visibility Wind Speed Wind Dir Waves Ship Positions

STS Pogoria

Last reported at 2019-Dec-12 07:30 UTC. Time now 2019-Dec-12 08:02 UTC.
Position N 43°44' E 007°42'.

Length 47 m.

Type: Sailing vessel. MMSI: 261146000.

Date/timePositionNaut miles runAvg speedWind from/ knotsBaromVisibWave heightAir tempDewpointWater temp
2019-Dec-12 07:30N 43°44' E 007°42'7 4.3
2019-Dec-12 06:00N 43°43' E 007°33'6 4.2
2019-Dec-12 04:30N 43°40' E 007°25'7 2.8
2019-Dec-12 02:00N 43°36' E 007°18'1 2.2
2019-Dec-12 01:30N 43°35' E 007°17'2 1.7
2019-Dec-12 00:30N 43°34' E 007°15'1 1.6
2019-Dec-12 00:00N 43°33' E 007°14'3 2.3
2019-Dec-11 22:30N 43°31' E 007°11'4 2.6
2019-Dec-11 21:00N 43°28' E 007°07'5 3.1
2019-Dec-11 19:30N 43°26' E 007°01'5 0.2
2019-Dec-10 14:30N 43°24' E 006°55'7 4.4
2019-Dec-10 13:00N 43°27' E 007°03'1 2.2
2019-Dec-10 12:30N 43°28' E 007°04'2 2.4
2019-Dec-10 11:31N 43°29' E 007°07'3 2.7
2019-Dec-10 10:30N 43°30' E 007°10'5 5.0
2019-Dec-10 09:30N 43°35' E 007°13'3 7.0
2019-Dec-10 09:00N 43°38' E 007°15'4 1.5
2019-Dec-10 06:28N 43°42' E 007°17'0 0.0
2019-Dec-10 04:28N 43°42' E 007°17'0 0.0
2019-Dec-10 03:28N 43°42' E 007°17'0 0.0
2019-Dec-10 02:58N 43°42' E 007°17'0 0.0
2019-Dec-10 01:58N 43°42' E 007°17'0 0.0
2019-Dec-09 22:00N 43°42' E 007°17'0 0.0
2019-Dec-09 21:00N 43°42' E 007°17'0 0.0
2019-Dec-09 20:30N 43°42' E 007°17'0 0.0
2019-Dec-09 20:00N 43°42' E 007°17'0 0.0
2019-Dec-09 18:00N 43°42' E 007°17'1 0.1
2019-Dec-09 07:00N 43°41' E 007°18'1 0.5
2019-Dec-09 04:30N 43°40' E 007°17'3 3.0
2019-Dec-09 03:30N 43°39' E 007°21'22 4.5
2019-Dec-08 22:30N 43°46' E 007°50'  
2019-Dec-06 12:01N 44°08' E 008°16'0 1.2
2019-Dec-06 12:00N 44°08' E 008°16'5 5.3
2019-Dec-06 11:00N 44°04' E 008°21'3 0.7
2019-Dec-06 06:52N 44°02' E 008°24'1 1.5
2019-Dec-06 06:30N 44°03' E 008°25'4 2.2
2019-Dec-06 04:29N 44°04' E 008°31'14 5.7
2019-Dec-06 02:00N 44°15' E 008°44'0 0.6
2019-Dec-06 01:30N 44°15' E 008°44'18 5.9
2019-Dec-05 22:30N 44°16' E 009°09'6 0.4
2019-Dec-05 05:55N 44°17' E 009°17'2 4.4
2019-Dec-05 05:29N 44°15' E 009°19'2 4.6
2019-Dec-05 05:00N 44°14' E 009°21'17 5.8
2019-Dec-05 02:00N 44°00' E 009°37'1 1.0
2019-Dec-05 00:58N 43°60' E 009°37'10 1.7
2019-Dec-04 18:58N 44°03' E 009°51'0 0.0
2019-Dec-04 16:58N 44°03' E 009°51'0 0.0
2019-Dec-04 11:58N 44°03' E 009°51'0 0.0
2019-Dec-04 09:28N 44°03' E 009°51'0 0.0
2019-Dec-04 08:28N 44°03' E 009°51'6 2.9
2019-Dec-04 06:30N 43°58' E 009°53'4 4.1
2019-Dec-04 05:30N 43°54' E 009°52'2 4.7
2019-Dec-04 05:00N 43°51' E 009°52'5 4.8
2019-Dec-04 04:00N 43°47' E 009°52'1 2.3
2019-Dec-04 03:30N 43°45' E 009°53'3 3.3
2019-Dec-04 02:30N 43°42' E 009°53'2 3.7
2019-Dec-04 02:00N 43°40' E 009°53'7 4.7
2019-Dec-04 00:30N 43°34' E 009°57'7 6.5
2019-Dec-03 23:29N 43°28' E 010°02'  

Dump ship's entire track history